Eglin Air Force Base
KVPS : rendu visible

Aérodrome :











RETROUVEZ-NOUS SUR...

 
LOGIN :

S'inscrire | Disclaimer

   EN    FR    IT 

 









Légende :    VFR   VFR Marginal   IFR   IFR Intensif   IFR Très Intensif
Visi : 
Plafond : 
>= 8 km
>= 3000ft
5 à 8 km
1000 à 3000 ft
1500m à 5 km
500 à 1000 ft
800 à 1500m
200 à 500 ft
< 800m
< 200 ft
Symboles :   Orages  Brouillard  Fortes neiges  Fortes précipitations  Vent > 20 kt






- Altitude de l'aérodrome : 87 ft
- Code IATA : VPS


KVPS - Eglin Air Force Base

DERNIER METAR :
  • 100826Z AUTO 00000KT 7SM BR CLR 19/19 A3002 RMK AO2 VIS 2 1/4 RWY01 VIS 1 1/4 RWY12 VIS 2 1/4 RWY30 SLP172 $

METARs EXPIRÉS :
  • 100821Z AUTO 00000KT 2 3/4SM BR CLR 19/19 A3002 RMK AO2 VIS 1 1/2V6 VIS 2 1/4 RWY12 SLP172 $
  • 100801Z AUTO 00000KT 7SM BR SCT011 19/19 A3002 RMK AO2 SLP172 $
  • 100656Z AUTO 14003KT 10SM BKN014 19/19 A3002 RMK AO2 CIG 013 RWY01 CIG 013 RWY30 SLP172 T01920192 $
  • 100646Z AUTO 13003KT 10SM SCT013 19/19 A3002 RMK AO2 SLP172 $
  • 100631Z AUTO 15004KT 10SM SCT014 19/19 A3002 RMK AO2 SLP172 $
  • 100621Z AUTO 15004KT 10SM BKN013 20/20 A3002 RMK AO2 BKN V SCT SLP172 $
  • 100556Z AUTO 14007KT 10SM FEW014 20/20 A3002 RMK AO2 SLP172 T01960196 10200 20188 402290157 58006 $
  • 100551Z AUTO 15006KT 10SM SCT014 20/20 A3002 RMK AO2 SLP172 $

TAF AMD TAF KVPS
Valide du 10 à 05h jusqu'au 11 à 08h UTC


100555Z 1005/1108 20005KT 8000 BR BKN015 BKN020 BKN200 QNH3000INS
BECMG 1008/1009 21005KT 0800 FG SCT005 BKN010 BKN020 QNH3001INS
TEMPO 1009/1014 0400 FG VV001
BECMG 1013/1014 21009KT 9999 NSW SCT015 BKN020 QNH3005INS
BECMG 1016/1017 22010G15KT 8000 -SHRA SCT018 BKN025 QNH2997INS
BECMG 1102/1103 26012G18KT 6000 -RA BR SCT005 BKN012 QNH2999INS TX25/1020Z TN19/1012Z



MET'MAP, la Météo Aéronautique d'un coup d'oeil ! - Copyright ORBIFLY Décembre 2007 - Disclaimer

ORBIFLY MET'MAP TEAM :

Programmation & Développement : Alexandra Zaïnal
Sur une idée originale de : Baudouin d'Aumeries
Assistance à la programmation : Marc-Olivier Méhu
Soutien technique & logistique : Manuel Goepfert

Contact : metmap@orbifly.com




SOURCES & CREDITS :

   NOAA       Earth
Advisory